sensor_id;sensor_type;location;lat;lon;timestamp;temperature;humidity
30473;DHT22;17263;48.160;11.452;2023-08-06T00:00:25;15.20;99.90
30473;DHT22;17263;48.160;11.452;2023-08-06T00:02:51;15.20;99.90
30473;DHT22;17263;48.160;11.452;2023-08-06T00:05:17;15.20;99.90
30473;DHT22;17263;48.160;11.452;2023-08-06T00:07:44;15.30;99.90
30473;DHT22;17263;48.160;11.452;2023-08-06T00:10:11;15.30;99.90
30473;DHT22;17263;48.160;11.452;2023-08-06T00:12:37;15.30;99.90
30473;DHT22;17263;48.160;11.452;2023-08-06T00:15:03;15.20;99.90
30473;DHT22;17263;48.160;11.452;2023-08-06T00:17:29;15.20;99.90
30473;DHT22;17263;48.160;11.452;2023-08-06T00:19:55;15.20;99.90
30473;DHT22;17263;48.160;11.452;2023-08-06T00:22:21;15.20;99.90
30473;DHT22;17263;48.160;11.452;2023-08-06T00:24:47;15.20;99.90
30473;DHT22;17263;48.160;11.452;2023-08-06T00:27:13;15.10;99.90
30473;DHT22;17263;48.160;11.452;2023-08-06T00:29:39;15.10;99.90
30473;DHT22;17263;48.160;11.452;2023-08-06T00:32:05;15.00;99.90
30473;DHT22;17263;48.160;11.452;2023-08-06T00:34:31;15.00;99.90
30473;DHT22;17263;48.160;11.452;2023-08-06T00:36:57;14.90;99.90
30473;DHT22;17263;48.160;11.452;2023-08-06T00:39:23;14.90;99.90
30473;DHT22;17263;48.160;11.452;2023-08-06T00:41:49;14.80;99.90
30473;DHT22;17263;48.160;11.452;2023-08-06T00:44:15;14.80;99.90
30473;DHT22;17263;48.160;11.452;2023-08-06T00:46:41;14.70;99.90
30473;DHT22;17263;48.160;11.452;2023-08-06T00:49:08;14.70;99.90
30473;DHT22;17263;48.160;11.452;2023-08-06T00:51:34;14.60;99.90
30473;DHT22;17263;48.160;11.452;2023-08-06T00:54:01;14.60;99.90
30473;DHT22;17263;48.160;11.452;2023-08-06T00:56:28;14.60;99.90
30473;DHT22;17263;48.160;11.452;2023-08-06T00:58:54;14.60;99.90
30473;DHT22;17263;48.160;11.452;2023-08-06T01:01:20;14.60;99.90
30473;DHT22;17263;48.160;11.452;2023-08-06T01:03:46;14.50;99.90
30473;DHT22;17263;48.160;11.452;2023-08-06T01:06:12;14.50;99.90
30473;DHT22;17263;48.160;11.452;2023-08-06T01:11:38;14.50;99.90
30473;DHT22;17263;48.160;11.452;2023-08-06T01:14:15;14.40;99.90
30473;DHT22;17263;48.160;11.452;2023-08-06T01:16:44;14.40;99.90
30473;DHT22;17263;48.160;11.452;2023-08-06T01:19:17;14.40;99.90
30473;DHT22;17263;48.160;11.452;2023-08-06T01:21:44;14.40;99.90
30473;DHT22;17263;48.160;11.452;2023-08-06T01:24:10;14.40;99.90
30473;DHT22;17263;48.160;11.452;2023-08-06T01:26:45;14.40;99.90
30473;DHT22;17263;48.160;11.452;2023-08-06T01:29:28;14.40;99.90
30473;DHT22;17263;48.160;11.452;2023-08-06T01:31:56;14.40;99.90
30473;DHT22;17263;48.160;11.452;2023-08-06T01:34:30;14.40;99.90
30473;DHT22;17263;48.160;11.452;2023-08-06T01:36:57;14.40;99.90
30473;DHT22;17263;48.160;11.452;2023-08-06T01:39:23;14.40;99.90
30473;DHT22;17263;48.160;11.452;2023-08-06T01:41:49;14.40;99.90
30473;DHT22;17263;48.160;11.452;2023-08-06T01:44:16;14.40;99.90
30473;DHT22;17263;48.160;11.452;2023-08-06T01:46:42;14.40;99.90
30473;DHT22;17263;48.160;11.452;2023-08-06T01:49:08;14.30;99.90
30473;DHT22;17263;48.160;11.452;2023-08-06T01:51:34;14.30;99.90
30473;DHT22;17263;48.160;11.452;2023-08-06T01:54:00;14.30;99.90
30473;DHT22;17263;48.160;11.452;2023-08-06T01:56:26;14.20;99.90
30473;DHT22;17263;48.160;11.452;2023-08-06T01:58:52;14.20;99.90
30473;DHT22;17263;48.160;11.452;2023-08-06T02:01:18;14.30;99.90
30473;DHT22;17263;48.160;11.452;2023-08-06T02:03:44;14.30;99.90
30473;DHT22;17263;48.160;11.452;2023-08-06T02:06:10;14.20;99.90
30473;DHT22;17263;48.160;11.452;2023-08-06T02:08:36;14.20;99.90
30473;DHT22;17263;48.160;11.452;2023-08-06T02:11:02;14.20;99.90
30473;DHT22;17263;48.160;11.452;2023-08-06T02:13:28;14.20;99.90
30473;DHT22;17263;48.160;11.452;2023-08-06T02:15:54;14.20;99.90
30473;DHT22;17263;48.160;11.452;2023-08-06T02:18:20;14.20;99.90
30473;DHT22;17263;48.160;11.452;2023-08-06T02:21:04;14.20;99.90
30473;DHT22;17263;48.160;11.452;2023-08-06T02:23:30;14.20;99.90
30473;DHT22;17263;48.160;11.452;2023-08-06T02:26:04;14.20;99.90
30473;DHT22;17263;48.160;11.452;2023-08-06T02:28:31;14.20;99.90
30473;DHT22;17263;48.160;11.452;2023-08-06T02:30:57;14.20;99.90
30473;DHT22;17263;48.160;11.452;2023-08-06T02:33:23;14.10;99.90
30473;DHT22;17263;48.160;11.452;2023-08-06T02:35:50;14.10;99.90
30473;DHT22;17263;48.160;11.452;2023-08-06T02:38:16;14.10;99.90
30473;DHT22;17263;48.160;11.452;2023-08-06T02:40:48;14.10;99.90
30473;DHT22;17263;48.160;11.452;2023-08-06T02:43:14;14.00;99.90
30473;DHT22;17263;48.160;11.452;2023-08-06T02:45:40;14.00;99.90
30473;DHT22;17263;48.160;11.452;2023-08-06T02:48:06;14.00;99.90
30473;DHT22;17263;48.160;11.452;2023-08-06T02:50:41;14.00;99.90
30473;DHT22;17263;48.160;11.452;2023-08-06T02:53:08;14.00;99.90
30473;DHT22;17263;48.160;11.452;2023-08-06T02:55:34;14.00;99.90
30473;DHT22;17263;48.160;11.452;2023-08-06T02:58:03;14.00;99.90
30473;DHT22;17263;48.160;11.452;2023-08-06T03:00:29;13.90;99.90
30473;DHT22;17263;48.160;11.452;2023-08-06T03:02:56;13.90;99.90
30473;DHT22;17263;48.160;11.452;2023-08-06T03:05:22;13.90;99.90
30473;DHT22;17263;48.160;11.452;2023-08-06T03:07:48;13.80;99.90
30473;DHT22;17263;48.160;11.452;2023-08-06T03:10:14;13.80;99.90
30473;DHT22;17263;48.160;11.452;2023-08-06T03:12:40;13.80;99.90
30473;DHT22;17263;48.160;11.452;2023-08-06T03:15:06;13.80;99.90
30473;DHT22;17263;48.160;11.452;2023-08-06T03:17:32;13.80;99.90
30473;DHT22;17263;48.160;11.452;2023-08-06T03:19:58;13.80;99.90
30473;DHT22;17263;48.160;11.452;2023-08-06T03:22:24;13.70;99.90
30473;DHT22;17263;48.160;11.452;2023-08-06T03:24:51;13.70;99.90
30473;DHT22;17263;48.160;11.452;2023-08-06T03:27:17;13.70;99.90
30473;DHT22;17263;48.160;11.452;2023-08-06T03:29:43;13.70;99.90
30473;DHT22;17263;48.160;11.452;2023-08-06T03:32:09;13.70;99.90
30473;DHT22;17263;48.160;11.452;2023-08-06T03:34:35;13.70;99.90
30473;DHT22;17263;48.160;11.452;2023-08-06T03:37:01;13.70;99.90
30473;DHT22;17263;48.160;11.452;2023-08-06T03:39:27;13.70;99.90
30473;DHT22;17263;48.160;11.452;2023-08-06T03:41:53;13.60;99.90
30473;DHT22;17263;48.160;11.452;2023-08-06T03:44:19;13.60;99.90
30473;DHT22;17263;48.160;11.452;2023-08-06T03:46:45;13.60;99.90
30473;DHT22;17263;48.160;11.452;2023-08-06T03:49:12;13.60;99.90
30473;DHT22;17263;48.160;11.452;2023-08-06T03:51:38;13.60;99.90
30473;DHT22;17263;48.160;11.452;2023-08-06T03:54:04;13.60;99.90
30473;DHT22;17263;48.160;11.452;2023-08-06T03:56:30;13.60;99.90
30473;DHT22;17263;48.160;11.452;2023-08-06T03:58:56;13.50;99.90
30473;DHT22;17263;48.160;11.452;2023-08-06T04:01:22;13.50;99.90
30473;DHT22;17263;48.160;11.452;2023-08-06T04:03:48;13.50;99.90
30473;DHT22;17263;48.160;11.452;2023-08-06T04:06:14;13.50;99.90
30473;DHT22;17263;48.160;11.452;2023-08-06T04:08:40;13.40;99.90
30473;DHT22;17263;48.160;11.452;2023-08-06T04:11:06;13.50;99.90
30473;DHT22;17263;48.160;11.452;2023-08-06T04:13:32;13.50;99.90
30473;DHT22;17263;48.160;11.452;2023-08-06T04:16:04;13.50;99.90
30473;DHT22;17263;48.160;11.452;2023-08-06T04:18:30;13.50;99.90
30473;DHT22;17263;48.160;11.452;2023-08-06T04:20:56;13.50;99.90
30473;DHT22;17263;48.160;11.452;2023-08-06T04:23:23;13.60;99.90
30473;DHT22;17263;48.160;11.452;2023-08-06T04:25:50;13.60;99.90
30473;DHT22;17263;48.160;11.452;2023-08-06T04:28:16;13.60;99.90
30473;DHT22;17263;48.160;11.452;2023-08-06T04:30:42;13.70;99.90
30473;DHT22;17263;48.160;11.452;2023-08-06T04:33:08;13.60;99.90
30473;DHT22;17263;48.160;11.452;2023-08-06T04:35:34;13.70;99.90
30473;DHT22;17263;48.160;11.452;2023-08-06T04:38:00;13.70;99.90
30473;DHT22;17263;48.160;11.452;2023-08-06T04:40:26;13.70;99.90
30473;DHT22;17263;48.160;11.452;2023-08-06T04:42:52;13.70;99.90
30473;DHT22;17263;48.160;11.452;2023-08-06T04:45:18;13.80;99.90
30473;DHT22;17263;48.160;11.452;2023-08-06T04:47:44;13.70;99.90
30473;DHT22;17263;48.160;11.452;2023-08-06T04:50:10;13.80;99.90
30473;DHT22;17263;48.160;11.452;2023-08-06T04:52:37;13.80;99.90
30473;DHT22;17263;48.160;11.452;2023-08-06T04:55:04;13.90;99.90
30473;DHT22;17263;48.160;11.452;2023-08-06T04:57:31;13.90;99.90
30473;DHT22;17263;48.160;11.452;2023-08-06T04:59:57;13.90;99.90
30473;DHT22;17263;48.160;11.452;2023-08-06T05:02:23;14.00;99.90
30473;DHT22;17263;48.160;11.452;2023-08-06T05:04:49;14.00;99.90
30473;DHT22;17263;48.160;11.452;2023-08-06T05:07:15;14.00;99.90
30473;DHT22;17263;48.160;11.452;2023-08-06T05:09:41;14.00;99.90
30473;DHT22;17263;48.160;11.452;2023-08-06T05:12:08;14.00;99.90
30473;DHT22;17263;48.160;11.452;2023-08-06T05:14:34;14.00;99.90
30473;DHT22;17263;48.160;11.452;2023-08-06T05:17:00;14.00;99.90
30473;DHT22;17263;48.160;11.452;2023-08-06T05:19:28;14.00;99.90
30473;DHT22;17263;48.160;11.452;2023-08-06T05:21:54;14.10;99.90
30473;DHT22;17263;48.160;11.452;2023-08-06T05:24:20;14.10;99.90
30473;DHT22;17263;48.160;11.452;2023-08-06T05:26:46;14.10;99.90
30473;DHT22;17263;48.160;11.452;2023-08-06T05:29:13;14.10;99.90
30473;DHT22;17263;48.160;11.452;2023-08-06T05:31:39;14.20;99.90
30473;DHT22;17263;48.160;11.452;2023-08-06T05:34:06;14.20;99.90
30473;DHT22;17263;48.160;11.452;2023-08-06T05:36:33;14.20;99.90
30473;DHT22;17263;48.160;11.452;2023-08-06T05:38:59;14.20;99.90
30473;DHT22;17263;48.160;11.452;2023-08-06T05:41:25;14.30;99.90
30473;DHT22;17263;48.160;11.452;2023-08-06T05:43:51;14.30;99.90
30473;DHT22;17263;48.160;11.452;2023-08-06T05:46:17;14.30;99.90
30473;DHT22;17263;48.160;11.452;2023-08-06T05:48:43;14.30;99.90
30473;DHT22;17263;48.160;11.452;2023-08-06T05:51:09;14.40;99.90
30473;DHT22;17263;48.160;11.452;2023-08-06T05:53:38;14.40;99.90
30473;DHT22;17263;48.160;11.452;2023-08-06T05:56:04;14.50;99.90
30473;DHT22;17263;48.160;11.452;2023-08-06T05:58:30;14.50;99.90
30473;DHT22;17263;48.160;11.452;2023-08-06T06:00:56;14.60;99.90
30473;DHT22;17263;48.160;11.452;2023-08-06T06:03:22;14.60;99.90
30473;DHT22;17263;48.160;11.452;2023-08-06T06:05:48;14.70;99.90
30473;DHT22;17263;48.160;11.452;2023-08-06T06:08:14;14.70;99.90
30473;DHT22;17263;48.160;11.452;2023-08-06T06:10:41;14.90;99.90
30473;DHT22;17263;48.160;11.452;2023-08-06T06:13:07;15.60;99.90
30473;DHT22;17263;48.160;11.452;2023-08-06T06:15:33;16.10;99.90
30473;DHT22;17263;48.160;11.452;2023-08-06T06:17:59;16.50;99.90
30473;DHT22;17263;48.160;11.452;2023-08-06T06:20:25;16.60;99.90
30473;DHT22;17263;48.160;11.452;2023-08-06T06:22:51;16.50;99.90
30473;DHT22;17263;48.160;11.452;2023-08-06T06:25:17;16.40;99.90
30473;DHT22;17263;48.160;11.452;2023-08-06T06:27:43;16.60;99.90
30473;DHT22;17263;48.160;11.452;2023-08-06T06:30:10;17.00;99.90
30473;DHT22;17263;48.160;11.452;2023-08-06T06:32:37;17.20;99.90
30473;DHT22;17263;48.160;11.452;2023-08-06T06:35:04;17.30;99.90
30473;DHT22;17263;48.160;11.452;2023-08-06T06:37:30;17.20;99.90
30473;DHT22;17263;48.160;11.452;2023-08-06T06:39:56;17.20;99.90
30473;DHT22;17263;48.160;11.452;2023-08-06T06:42:22;17.10;99.90
30473;DHT22;17263;48.160;11.452;2023-08-06T06:44:48;17.10;99.90
30473;DHT22;17263;48.160;11.452;2023-08-06T06:47:14;17.20;99.90
30473;DHT22;17263;48.160;11.452;2023-08-06T06:49:40;17.70;99.90
30473;DHT22;17263;48.160;11.452;2023-08-06T06:52:06;18.70;99.90
30473;DHT22;17263;48.160;11.452;2023-08-06T06:54:32;19.80;99.90
30473;DHT22;17263;48.160;11.452;2023-08-06T06:56:58;20.40;99.90
30473;DHT22;17263;48.160;11.452;2023-08-06T06:59:24;21.00;99.90
30473;DHT22;17263;48.160;11.452;2023-08-06T07:01:50;21.80;99.90
30473;DHT22;17263;48.160;11.452;2023-08-06T07:04:16;22.60;99.90
30473;DHT22;17263;48.160;11.452;2023-08-06T07:06:42;23.20;99.90
30473;DHT22;17263;48.160;11.452;2023-08-06T07:09:08;23.10;99.90
30473;DHT22;17263;48.160;11.452;2023-08-06T07:11:34;22.70;99.90
30473;DHT22;17263;48.160;11.452;2023-08-06T07:14:01;21.90;99.90
30473;DHT22;17263;48.160;11.452;2023-08-06T07:16:27;21.20;99.90
30473;DHT22;17263;48.160;11.452;2023-08-06T07:18:53;20.60;99.90
30473;DHT22;17263;48.160;11.452;2023-08-06T07:21:20;20.00;99.90
30473;DHT22;17263;48.160;11.452;2023-08-06T07:23:46;19.40;99.90
30473;DHT22;17263;48.160;11.452;2023-08-06T07:26:12;19.00;99.90
30473;DHT22;17263;48.160;11.452;2023-08-06T07:28:38;18.50;99.90
30473;DHT22;17263;48.160;11.452;2023-08-06T07:31:04;18.10;99.90
30473;DHT22;17263;48.160;11.452;2023-08-06T07:33:30;17.70;99.90
30473;DHT22;17263;48.160;11.452;2023-08-06T07:35:56;17.40;99.90
30473;DHT22;17263;48.160;11.452;2023-08-06T07:38:22;17.20;99.90
30473;DHT22;17263;48.160;11.452;2023-08-06T07:40:48;17.00;99.90
30473;DHT22;17263;48.160;11.452;2023-08-06T07:43:14;16.80;99.90
30473;DHT22;17263;48.160;11.452;2023-08-06T07:45:40;16.70;99.90
30473;DHT22;17263;48.160;11.452;2023-08-06T07:48:06;16.60;99.90
30473;DHT22;17263;48.160;11.452;2023-08-06T07:50:32;16.60;99.90
30473;DHT22;17263;48.160;11.452;2023-08-06T07:52:58;16.50;99.90
30473;DHT22;17263;48.160;11.452;2023-08-06T07:55:25;16.70;99.90
30473;DHT22;17263;48.160;11.452;2023-08-06T07:57:51;17.00;99.90
30473;DHT22;17263;48.160;11.452;2023-08-06T08:00:17;17.70;99.90
30473;DHT22;17263;48.160;11.452;2023-08-06T08:02:43;18.50;99.90
30473;DHT22;17263;48.160;11.452;2023-08-06T08:05:09;19.20;99.90
30473;DHT22;17263;48.160;11.452;2023-08-06T08:07:35;19.80;99.90
30473;DHT22;17263;48.160;11.452;2023-08-06T08:10:01;20.50;99.90
30473;DHT22;17263;48.160;11.452;2023-08-06T08:12:27;21.00;99.90
30473;DHT22;17263;48.160;11.452;2023-08-06T08:14:53;21.40;99.90
30473;DHT22;17263;48.160;11.452;2023-08-06T08:17:19;21.90;99.90
30473;DHT22;17263;48.160;11.452;2023-08-06T08:19:45;22.70;99.90
30473;DHT22;17263;48.160;11.452;2023-08-06T08:22:11;23.10;99.90
30473;DHT22;17263;48.160;11.452;2023-08-06T08:24:37;23.10;99.90
30473;DHT22;17263;48.160;11.452;2023-08-06T08:27:03;22.90;99.90
30473;DHT22;17263;48.160;11.452;2023-08-06T08:29:29;22.50;99.90
30473;DHT22;17263;48.160;11.452;2023-08-06T08:31:56;21.90;99.90
30473;DHT22;17263;48.160;11.452;2023-08-06T08:34:22;21.60;99.90
30473;DHT22;17263;48.160;11.452;2023-08-06T08:36:48;21.10;99.90
30473;DHT22;17263;48.160;11.452;2023-08-06T08:39:15;20.70;99.90
30473;DHT22;17263;48.160;11.452;2023-08-06T08:41:42;20.20;99.90
30473;DHT22;17263;48.160;11.452;2023-08-06T08:44:09;19.80;99.90
30473;DHT22;17263;48.160;11.452;2023-08-06T08:46:38;19.50;99.90
30473;DHT22;17263;48.160;11.452;2023-08-06T08:49:04;19.40;99.90
30473;DHT22;17263;48.160;11.452;2023-08-06T08:51:31;19.30;99.90
30473;DHT22;17263;48.160;11.452;2023-08-06T08:53:57;19.10;99.90
30473;DHT22;17263;48.160;11.452;2023-08-06T08:56:24;19.10;99.90
30473;DHT22;17263;48.160;11.452;2023-08-06T08:58:50;19.00;99.90
30473;DHT22;17263;48.160;11.452;2023-08-06T09:01:19;18.90;99.90
30473;DHT22;17263;48.160;11.452;2023-08-06T09:03:46;18.90;99.90
30473;DHT22;17263;48.160;11.452;2023-08-06T09:06:13;18.90;99.90
30473;DHT22;17263;48.160;11.452;2023-08-06T09:08:47;19.00;99.90
30473;DHT22;17263;48.160;11.452;2023-08-06T09:11:14;18.70;99.90
30473;DHT22;17263;48.160;11.452;2023-08-06T09:13:41;18.60;99.90
30473;DHT22;17263;48.160;11.452;2023-08-06T09:16:07;18.40;99.90
30473;DHT22;17263;48.160;11.452;2023-08-06T09:18:33;18.30;99.90
30473;DHT22;17263;48.160;11.452;2023-08-06T09:20:59;18.30;99.90
30473;DHT22;17263;48.160;11.452;2023-08-06T09:23:30;18.30;99.90
30473;DHT22;17263;48.160;11.452;2023-08-06T09:25:57;18.30;99.90
30473;DHT22;17263;48.160;11.452;2023-08-06T09:28:23;18.20;99.90
30473;DHT22;17263;48.160;11.452;2023-08-06T09:30:52;18.20;99.90
30473;DHT22;17263;48.160;11.452;2023-08-06T09:33:19;18.10;99.90
30473;DHT22;17263;48.160;11.452;2023-08-06T09:35:46;18.10;99.90
30473;DHT22;17263;48.160;11.452;2023-08-06T09:38:13;18.10;99.90
30473;DHT22;17263;48.160;11.452;2023-08-06T09:40:39;18.20;99.90
30473;DHT22;17263;48.160;11.452;2023-08-06T09:43:06;18.30;99.90
30473;DHT22;17263;48.160;11.452;2023-08-06T09:45:36;18.30;99.90
30473;DHT22;17263;48.160;11.452;2023-08-06T09:48:08;18.20;99.90
30473;DHT22;17263;48.160;11.452;2023-08-06T09:50:36;18.10;99.90
30473;DHT22;17263;48.160;11.452;2023-08-06T09:53:06;18.00;99.90
30473;DHT22;17263;48.160;11.452;2023-08-06T09:55:33;18.00;99.90
30473;DHT22;17263;48.160;11.452;2023-08-06T09:57:59;17.90;99.90
30473;DHT22;17263;48.160;11.452;2023-08-06T10:00:26;17.90;99.90
30473;DHT22;17263;48.160;11.452;2023-08-06T10:02:54;17.90;99.90
30473;DHT22;17263;48.160;11.452;2023-08-06T10:05:22;17.80;99.90
30473;DHT22;17263;48.160;11.452;2023-08-06T10:07:50;17.70;99.90
30473;DHT22;17263;48.160;11.452;2023-08-06T10:10:19;17.70;99.90
30473;DHT22;17263;48.160;11.452;2023-08-06T10:12:54;17.60;99.90
30473;DHT22;17263;48.160;11.452;2023-08-06T10:15:28;17.80;99.90
30473;DHT22;17263;48.160;11.452;2023-08-06T10:17:57;18.00;99.90
30473;DHT22;17263;48.160;11.452;2023-08-06T10:20:24;18.30;99.90
30473;DHT22;17263;48.160;11.452;2023-08-06T10:23:01;18.50;99.90
30473;DHT22;17263;48.160;11.452;2023-08-06T10:25:30;18.70;99.90
30473;DHT22;17263;48.160;11.452;2023-08-06T10:27:57;18.80;99.90
30473;DHT22;17263;48.160;11.452;2023-08-06T10:30:31;19.00;99.90
30473;DHT22;17263;48.160;11.452;2023-08-06T10:32:58;19.00;99.90
30473;DHT22;17263;48.160;11.452;2023-08-06T10:35:36;18.80;99.90
30473;DHT22;17263;48.160;11.452;2023-08-06T10:38:12;18.60;99.90
30473;DHT22;17263;48.160;11.452;2023-08-06T10:43:32;18.40;99.90
30473;DHT22;17263;48.160;11.452;2023-08-06T10:46:00;18.40;99.90
30473;DHT22;17263;48.160;11.452;2023-08-06T10:48:30;18.40;99.90
30473;DHT22;17263;48.160;11.452;2023-08-06T10:51:00;18.40;99.90
30473;DHT22;17263;48.160;11.452;2023-08-06T10:53:26;18.40;99.90
30473;DHT22;17263;48.160;11.452;2023-08-06T10:55:52;18.50;99.90
30473;DHT22;17263;48.160;11.452;2023-08-06T10:58:18;18.50;99.90
30473;DHT22;17263;48.160;11.452;2023-08-06T11:00:45;18.60;99.90
30473;DHT22;17263;48.160;11.452;2023-08-06T11:03:11;18.60;99.90
30473;DHT22;17263;48.160;11.452;2023-08-06T11:05:38;18.70;99.90
30473;DHT22;17263;48.160;11.452;2023-08-06T11:08:05;18.80;99.90
30473;DHT22;17263;48.160;11.452;2023-08-06T11:10:33;18.70;99.90
30473;DHT22;17263;48.160;11.452;2023-08-06T11:13:04;18.70;99.90
30473;DHT22;17263;48.160;11.452;2023-08-06T11:15:30;18.70;99.90
30473;DHT22;17263;48.160;11.452;2023-08-06T11:17:56;18.50;99.90
30473;DHT22;17263;48.160;11.452;2023-08-06T11:20:22;18.50;99.90
30473;DHT22;17263;48.160;11.452;2023-08-06T11:22:50;18.60;99.90
30473;DHT22;17263;48.160;11.452;2023-08-06T11:25:19;18.60;99.90
30473;DHT22;17263;48.160;11.452;2023-08-06T11:27:45;18.70;99.90
30473;DHT22;17263;48.160;11.452;2023-08-06T11:30:11;18.80;99.90
30473;DHT22;17263;48.160;11.452;2023-08-06T11:32:47;18.70;99.90
30473;DHT22;17263;48.160;11.452;2023-08-06T11:35:15;18.60;99.90
30473;DHT22;17263;48.160;11.452;2023-08-06T11:37:47;18.60;99.90
30473;DHT22;17263;48.160;11.452;2023-08-06T11:40:15;18.50;99.90
30473;DHT22;17263;48.160;11.452;2023-08-06T11:42:41;18.40;99.90
30473;DHT22;17263;48.160;11.452;2023-08-06T11:45:08;18.40;99.90
30473;DHT22;17263;48.160;11.452;2023-08-06T11:47:38;18.40;99.90
30473;DHT22;17263;48.160;11.452;2023-08-06T11:50:06;18.40;99.90
30473;DHT22;17263;48.160;11.452;2023-08-06T11:52:32;18.60;99.90
30473;DHT22;17263;48.160;11.452;2023-08-06T11:55:02;18.70;99.90
30473;DHT22;17263;48.160;11.452;2023-08-06T11:57:30;18.70;99.90
30473;DHT22;17263;48.160;11.452;2023-08-06T12:00:02;18.70;99.90
30473;DHT22;17263;48.160;11.452;2023-08-06T12:02:32;18.80;99.90
30473;DHT22;17263;48.160;11.452;2023-08-06T12:05:04;18.80;99.90
30473;DHT22;17263;48.160;11.452;2023-08-06T12:07:32;18.80;99.90
30473;DHT22;17263;48.160;11.452;2023-08-06T12:09:59;18.60;99.90
30473;DHT22;17263;48.160;11.452;2023-08-06T12:12:25;18.60;99.90
30473;DHT22;17263;48.160;11.452;2023-08-06T12:14:51;18.60;99.90
30473;DHT22;17263;48.160;11.452;2023-08-06T12:17:17;18.60;99.90
30473;DHT22;17263;48.160;11.452;2023-08-06T12:19:45;18.60;99.90
30473;DHT22;17263;48.160;11.452;2023-08-06T12:22:11;18.60;99.90
30473;DHT22;17263;48.160;11.452;2023-08-06T12:24:42;18.40;99.90
30473;DHT22;17263;48.160;11.452;2023-08-06T12:27:09;18.30;99.90
30473;DHT22;17263;48.160;11.452;2023-08-06T12:29:36;18.30;99.90
30473;DHT22;17263;48.160;11.452;2023-08-06T12:32:03;18.20;99.90
30473;DHT22;17263;48.160;11.452;2023-08-06T12:34:29;18.10;99.90
30473;DHT22;17263;48.160;11.452;2023-08-06T12:36:55;18.00;99.90
30473;DHT22;17263;48.160;11.452;2023-08-06T12:39:22;17.90;99.90
30473;DHT22;17263;48.160;11.452;2023-08-06T12:41:48;17.80;99.90
30473;DHT22;17263;48.160;11.452;2023-08-06T12:44:14;17.60;99.90
30473;DHT22;17263;48.160;11.452;2023-08-06T12:46:40;17.30;99.90
30473;DHT22;17263;48.160;11.452;2023-08-06T12:49:06;17.10;99.90
30473;DHT22;17263;48.160;11.452;2023-08-06T12:51:32;17.10;99.90
30473;DHT22;17263;48.160;11.452;2023-08-06T12:54:00;17.20;99.90
30473;DHT22;17263;48.160;11.452;2023-08-06T12:56:26;17.30;99.90
30473;DHT22;17263;48.160;11.452;2023-08-06T12:58:52;17.40;99.90
30473;DHT22;17263;48.160;11.452;2023-08-06T13:01:18;17.50;99.90
30473;DHT22;17263;48.160;11.452;2023-08-06T13:03:44;17.60;99.90
30473;DHT22;17263;48.160;11.452;2023-08-06T13:06:10;17.70;99.90
30473;DHT22;17263;48.160;11.452;2023-08-06T13:08:36;17.80;99.90
30473;DHT22;17263;48.160;11.452;2023-08-06T13:11:02;18.10;99.90
30473;DHT22;17263;48.160;11.452;2023-08-06T13:13:28;18.10;99.90
30473;DHT22;17263;48.160;11.452;2023-08-06T13:15:55;18.10;99.90
30473;DHT22;17263;48.160;11.452;2023-08-06T13:18:21;18.00;99.90
30473;DHT22;17263;48.160;11.452;2023-08-06T13:20:47;17.80;99.90
30473;DHT22;17263;48.160;11.452;2023-08-06T13:23:15;17.60;99.90
30473;DHT22;17263;48.160;11.452;2023-08-06T13:25:42;17.30;99.90
30473;DHT22;17263;48.160;11.452;2023-08-06T13:28:08;17.20;99.90
30473;DHT22;17263;48.160;11.452;2023-08-06T13:30:35;17.10;99.90
30473;DHT22;17263;48.160;11.452;2023-08-06T13:33:11;17.10;99.90
30473;DHT22;17263;48.160;11.452;2023-08-06T13:35:37;17.10;99.90
30473;DHT22;17263;48.160;11.452;2023-08-06T13:38:04;17.10;99.90
30473;DHT22;17263;48.160;11.452;2023-08-06T13:40:32;17.10;99.90
30473;DHT22;17263;48.160;11.452;2023-08-06T13:42:59;17.20;99.90
30473;DHT22;17263;48.160;11.452;2023-08-06T13:45:25;17.10;99.90
30473;DHT22;17263;48.160;11.452;2023-08-06T13:47:51;16.90;99.90
30473;DHT22;17263;48.160;11.452;2023-08-06T13:50:17;16.90;99.90
30473;DHT22;17263;48.160;11.452;2023-08-06T13:52:44;16.90;99.90
30473;DHT22;17263;48.160;11.452;2023-08-06T13:55:10;16.80;99.90
30473;DHT22;17263;48.160;11.452;2023-08-06T13:57:36;16.70;99.90
30473;DHT22;17263;48.160;11.452;2023-08-06T14:00:03;16.70;99.90
30473;DHT22;17263;48.160;11.452;2023-08-06T14:02:29;16.60;99.90
30473;DHT22;17263;48.160;11.452;2023-08-06T14:04:55;16.60;99.90
30473;DHT22;17263;48.160;11.452;2023-08-06T14:07:21;16.50;99.90
30473;DHT22;17263;48.160;11.452;2023-08-06T14:09:51;16.50;99.90
30473;DHT22;17263;48.160;11.452;2023-08-06T14:12:17;16.50;99.90
30473;DHT22;17263;48.160;11.452;2023-08-06T14:14:43;16.50;99.90
30473;DHT22;17263;48.160;11.452;2023-08-06T14:17:09;16.60;99.90
30473;DHT22;17263;48.160;11.452;2023-08-06T14:19:35;16.50;99.90
30473;DHT22;17263;48.160;11.452;2023-08-06T14:22:01;16.50;99.90
30473;DHT22;17263;48.160;11.452;2023-08-06T14:24:27;16.60;99.90
30473;DHT22;17263;48.160;11.452;2023-08-06T14:26:53;16.50;99.90
30473;DHT22;17263;48.160;11.452;2023-08-06T14:29:20;16.40;99.90
30473;DHT22;17263;48.160;11.452;2023-08-06T14:31:46;16.40;99.90
30473;DHT22;17263;48.160;11.452;2023-08-06T14:34:12;16.30;99.90
30473;DHT22;17263;48.160;11.452;2023-08-06T14:36:38;16.10;99.90
30473;DHT22;17263;48.160;11.452;2023-08-06T14:39:05;16.10;99.90
30473;DHT22;17263;48.160;11.452;2023-08-06T14:41:31;15.90;99.90
30473;DHT22;17263;48.160;11.452;2023-08-06T14:43:57;15.80;99.90
30473;DHT22;17263;48.160;11.452;2023-08-06T14:46:23;15.70;99.90
30473;DHT22;17263;48.160;11.452;2023-08-06T14:48:49;15.70;99.90
30473;DHT22;17263;48.160;11.452;2023-08-06T14:51:15;15.60;99.90
30473;DHT22;17263;48.160;11.452;2023-08-06T14:53:41;15.60;99.90
30473;DHT22;17263;48.160;11.452;2023-08-06T14:56:08;15.60;99.90
30473;DHT22;17263;48.160;11.452;2023-08-06T14:58:34;15.50;99.90
30473;DHT22;17263;48.160;11.452;2023-08-06T15:01:00;15.50;99.90
30473;DHT22;17263;48.160;11.452;2023-08-06T15:03:26;15.50;99.90
30473;DHT22;17263;48.160;11.452;2023-08-06T15:05:53;15.50;99.90
30473;DHT22;17263;48.160;11.452;2023-08-06T15:08:19;15.60;99.90
30473;DHT22;17263;48.160;11.452;2023-08-06T15:10:52;15.60;99.90
30473;DHT22;17263;48.160;11.452;2023-08-06T15:13:19;15.60;99.90
30473;DHT22;17263;48.160;11.452;2023-08-06T15:15:51;15.60;99.90
30473;DHT22;17263;48.160;11.452;2023-08-06T15:18:17;15.60;99.90